Time;durP1;ratioP1;P1;durP2;ratioP2;P2;SDS_P1;SDS_P2;PMS_P1;PMS_P2;Temp;Humidity;BMP_temperature;BMP_pressure;BME280_temperature;BME280_humidity;BME280_pressure;Samples;Min_cycle;Max_cycle;Signal;HPM_P1;HPM_P2
2021/09/10 00:02:13;;;;;;;4.43;2.75;;;;;;;;;;5030943;28;20069;-81
2021/09/10 00:04:40;;;;;;;3.58;3.47;;;;;;;;;;5031037;28;20075;-82
2021/09/10 00:07:07;;;;;;;3.35;3.25;;;;;;;;;;5031986;28;20045;-82
2021/09/10 00:09:34;;;;;;;4.18;3.03;;;;;;;;;;5032361;28;20029;-82
2021/09/10 00:12:01;;;;;;;2.90;2.80;;;;;;;;;;5029944;28;20140;-82
2021/09/10 00:14:27;;;;;;;3.28;3.08;;;;;;;;;;5032425;28;20053;-82
2021/09/10 00:16:54;;;;;;;2.85;2.75;;;;;;;;;;5013756;28;20049;-81
2021/09/10 00:19:21;;;;;;;4.13;3.55;;;;;;;;;;5042837;28;20095;-81
2021/09/10 00:21:48;;;;;;;3.55;3.45;;;;;;;;;;5023655;28;20034;-81
2021/09/10 00:24:14;;;;;;;3.33;3.22;;;;;;;;;;5042662;28;20076;-81
2021/09/10 00:26:41;;;;;;;3.83;3.22;;;;;;;;;;5018953;28;20041;-81
2021/09/10 00:29:08;;;;;;;2.90;2.80;;;;;;;;;;5029428;28;20053;-81
2021/09/10 00:31:34;;;;;;;3.15;2.90;;;;;;;;;;5030580;28;20525;-82
2021/09/10 00:34:01;;;;;;;2.88;2.40;;;;;;;;;;5033111;28;20041;-82
2021/09/10 00:36:28;;;;;;;3.42;3.20;;;;;;;;;;5015004;28;20112;-82
2021/09/10 00:38:55;;;;;;;3.00;2.80;;;;;;;;;;5032069;28;20038;-82
2021/09/10 00:41:21;;;;;;;3.15;2.97;;;;;;;;;;5030292;28;20083;-81
2021/09/10 00:43:48;;;;;;;2.78;2.67;;;;;;;;;;5052431;28;20068;-82
2021/09/10 00:46:15;;;;;;;3.00;2.90;;;;;;;;;;5030127;28;20088;-82
2021/09/10 00:48:42;;;;;;;2.30;2.22;;;;;;;;;;5062207;28;20052;-82
2021/09/10 00:51:09;;;;;;;3.88;3.67;;;;;;;;;;5063831;28;20076;-82
2021/09/10 00:53:36;;;;;;;7.70;2.85;;;;;;;;;;5028707;28;20092;-82
2021/09/10 00:56:03;;;;;;;3.17;2.97;;;;;;;;;;5032987;28;20042;-82
2021/09/10 00:58:30;;;;;;;3.10;2.88;;;;;;;;;;5030807;28;20077;-81
2021/09/10 01:00:56;;;;;;;3.22;3.03;;;;;;;;;;5041215;28;20084;-81
2021/09/10 01:03:24;;;;;;;3.10;3.00;;;;;;;;;;5029677;28;20351;-81
2021/09/10 01:05:51;;;;;;;3.72;2.60;;;;;;;;;;5027183;28;20046;-81
2021/09/10 01:08:18;;;;;;;3.22;3.13;;;;;;;;;;5048769;28;20087;-81
2021/09/10 01:10:49;;;;;;;2.25;2.15;;;;;;;;;;5030624;28;20049;-81
2021/09/10 01:13:16;;;;;;;3.92;3.72;;;;;;;;;;5029537;28;20048;-81
2021/09/10 01:15:43;;;;;;;3.35;3.25;;;;;;;;;;5028246;28;20042;-81
2021/09/10 01:18:10;;;;;;;3.55;3.20;;;;;;;;;;5062164;28;20041;-81
2021/09/10 01:20:37;;;;;;;2.60;2.50;;;;;;;;;;5029694;28;20045;-81
2021/09/10 01:23:04;;;;;;;3.35;3.22;;;;;;;;;;5025884;28;20386;-81
2021/09/10 01:25:30;;;;;;;3.00;2.80;;;;;;;;;;5030720;28;20096;-81
2021/09/10 01:27:58;;;;;;;3.47;3.28;;;;;;;;;;5032151;28;20037;-81
2021/09/10 01:30:26;;;;;;;3.15;3.05;;;;;;;;;;5033030;28;20050;-82
2021/09/10 01:32:53;;;;;;;3.20;3.00;;;;;;;;;;5034273;28;20746;-82
2021/09/10 01:35:20;;;;;;;2.97;2.88;;;;;;;;;;5029933;28;20034;-82
2021/09/10 01:37:47;;;;;;;3.17;2.95;;;;;;;;;;5033924;28;20045;-82
2021/09/10 01:40:14;;;;;;;3.38;3.15;;;;;;;;;;5014485;28;20054;-82
2021/09/10 01:42:41;;;;;;;3.53;3.42;;;;;;;;;;5033136;28;20095;-81
2021/09/10 01:45:10;;;;;;;7.20;3.90;;;;;;;;;;5014617;28;20057;-81
2021/09/10 01:47:37;;;;;;;3.33;3.08;;;;;;;;;;5033491;28;20568;-81
2021/09/10 01:50:05;;;;;;;3.28;3.00;;;;;;;;;;5031592;28;20049;-81
2021/09/10 01:52:31;;;;;;;3.25;3.15;;;;;;;;;;5033696;28;20424;-81
2021/09/10 01:54:58;;;;;;;3.47;3.38;;;;;;;;;;5031652;28;20118;-81
2021/09/10 01:57:25;;;;;;;3.17;3.00;;;;;;;;;;5017190;28;20045;-81
2021/09/10 01:59:52;;;;;;;3.25;3.15;;;;;;;;;;5033665;28;20041;-82
2021/09/10 02:02:18;;;;;;;3.33;3.13;;;;;;;;;;5031143;28;20092;-81
2021/09/10 02:04:45;;;;;;;4.30;4.10;;;;;;;;;;5064456;28;20109;-81
2021/09/10 02:07:12;;;;;;;4.28;4.07;;;;;;;;;;5023495;28;20084;-81
2021/09/10 02:09:39;;;;;;;3.78;3.67;;;;;;;;;;5027294;28;20115;-81
2021/09/10 02:12:06;;;;;;;3.10;3.00;;;;;;;;;;5032325;28;20056;-81
2021/09/10 02:14:34;;;;;;;4.43;3.70;;;;;;;;;;5031737;28;20087;-81
2021/09/10 02:17:01;;;;;;;3.92;3.83;;;;;;;;;;5047508;28;20091;-81
2021/09/10 02:19:28;;;;;;;3.40;3.22;;;;;;;;;;5024401;28;20037;-81
2021/09/10 02:21:55;;;;;;;4.65;3.92;;;;;;;;;;5031577;28;20064;-81
2021/09/10 02:24:22;;;;;;;4.05;3.78;;;;;;;;;;5029434;28;20045;-81
2021/09/10 02:26:49;;;;;;;3.55;3.28;;;;;;;;;;5043062;28;20048;-81
2021/09/10 02:29:16;;;;;;;4.53;4.32;;;;;;;;;;5033181;28;20116;-81
2021/09/10 02:31:42;;;;;;;3.67;3.40;;;;;;;;;;5032713;28;20501;-81
2021/09/10 02:34:10;;;;;;;3.85;3.65;;;;;;;;;;5032830;28;20037;-81
2021/09/10 02:36:36;;;;;;;3.65;3.55;;;;;;;;;;5033341;28;20128;-81
2021/09/10 02:39:05;;;;;;;4.05;3.95;;;;;;;;;;5037671;28;20073;-81
2021/09/10 02:41:32;;;;;;;3.65;3.55;;;;;;;;;;5031819;28;20045;-81
2021/09/10 02:43:58;;;;;;;3.50;3.40;;;;;;;;;;5029909;28;20045;-81
2021/09/10 02:46:25;;;;;;;6.18;3.53;;;;;;;;;;5031447;28;20073;-81
2021/09/10 02:48:52;;;;;;;4.32;4.13;;;;;;;;;;5024804;28;20057;-81
2021/09/10 02:51:19;;;;;;;3.90;3.72;;;;;;;;;;5047559;28;20053;-81
2021/09/10 02:53:45;;;;;;;3.65;3.35;;;;;;;;;;5031976;28;20041;-81
2021/09/10 02:56:12;;;;;;;3.33;2.90;;;;;;;;;;5031236;28;20073;-81
2021/09/10 02:58:39;;;;;;;4.07;3.97;;;;;;;;;;5014880;28;20038;-81
2021/09/10 03:01:06;;;;;;;4.32;4.05;;;;;;;;;;5031653;28;20041;-81
2021/09/10 03:03:33;;;;;;;3.88;3.67;;;;;;;;;;5032826;28;20037;-81
2021/09/10 03:06:01;;;;;;;3.40;3.20;;;;;;;;;;5060641;28;20128;-81
2021/09/10 03:08:28;;;;;;;4.22;4.03;;;;;;;;;;5062578;28;20030;-81
2021/09/10 03:10:55;;;;;;;4.00;3.88;;;;;;;;;;5028152;28;20457;-81
2021/09/10 03:13:22;;;;;;;4.72;4.53;;;;;;;;;;5013103;28;20061;-81
2021/09/10 03:15:49;;;;;;;4.93;4.63;;;;;;;;;;5046353;28;20049;-81
2021/09/10 03:18:16;;;;;;;7.15;4.45;;;;;;;;;;5029450;28;20045;-81
2021/09/10 03:20:43;;;;;;;4.38;4.18;;;;;;;;;;5028379;28;20107;-81
2021/09/10 03:23:10;;;;;;;5.05;4.95;;;;;;;;;;5045028;28;20435;-81
2021/09/10 03:25:37;;;;;;;3.95;3.45;;;;;;;;;;5030706;28;20033;-81
2021/09/10 03:28:04;;;;;;;4.45;4.32;;;;;;;;;;5013399;28;20037;-81
2021/09/10 03:30:31;;;;;;;4.82;4.53;;;;;;;;;;5028244;28;20053;-81
2021/09/10 03:32:57;;;;;;;4.78;4.45;;;;;;;;;;5029685;28;20045;-81
2021/09/10 03:35:24;;;;;;;5.57;4.97;;;;;;;;;;5025532;28;20537;-81
2021/09/10 03:37:51;;;;;;;4.13;3.83;;;;;;;;;;5062225;28;20049;-81
2021/09/10 03:40:18;;;;;;;4.25;3.90;;;;;;;;;;5030096;28;20037;-81
2021/09/10 03:42:44;;;;;;;5.47;5.30;;;;;;;;;;5045217;28;20092;-81
2021/09/10 03:45:11;;;;;;;5.72;5.53;;;;;;;;;;5031863;28;20069;-81
2021/09/10 03:47:38;;;;;;;4.50;4.28;;;;;;;;;;5030231;28;20083;-81
2021/09/10 03:50:05;;;;;;;4.53;4.43;;;;;;;;;;5025677;28;20064;-81
2021/09/10 03:52:32;;;;;;;4.78;4.57;;;;;;;;;;5027442;28;20045;-81
2021/09/10 03:54:58;;;;;;;7.13;4.45;;;;;;;;;;5028329;28;20474;-81
2021/09/10 03:57:25;;;;;;;5.75;5.28;;;;;;;;;;5029402;28;20030;-81
2021/09/10 03:59:52;;;;;;;4.22;4.13;;;;;;;;;;5041770;28;20072;-81
2021/09/10 04:02:19;;;;;;;4.53;4.40;;;;;;;;;;5029029;28;20050;-81
2021/09/10 04:04:46;;;;;;;5.55;5.05;;;;;;;;;;5046740;28;20038;-81
2021/09/10 04:07:13;;;;;;;4.35;4.25;;;;;;;;;;5042971;28;20057;-81
2021/09/10 04:09:40;;;;;;;4.90;4.57;;;;;;;;;;5012344;28;20055;-81
2021/09/10 04:12:06;;;;;;;4.55;4.15;;;;;;;;;;5052440;28;20117;-81
2021/09/10 04:14:33;;;;;;;4.43;4.28;;;;;;;;;;5025772;28;20432;-81
2021/09/10 04:17:00;;;;;;;4.57;4.35;;;;;;;;;;5030567;28;20117;-81
2021/09/10 04:19:27;;;;;;;5.13;4.93;;;;;;;;;;5026298;28;20039;-81
2021/09/10 04:21:54;;;;;;;5.30;4.95;;;;;;;;;;5026297;28;20413;-81
2021/09/10 04:24:21;;;;;;;5.00;4.60;;;;;;;;;;5027980;28;20062;-81
2021/09/10 04:26:47;;;;;;;4.85;4.65;;;;;;;;;;5031047;28;20425;-81
2021/09/10 04:29:14;;;;;;;4.93;4.82;;;;;;;;;;5063407;28;20092;-81
2021/09/10 04:31:41;;;;;;;4.60;4.50;;;;;;;;;;5060990;28;20037;-81
2021/09/10 04:34:08;;;;;;;5.13;5.03;;;;;;;;;;5026136;28;20034;-81
2021/09/10 04:36:34;;;;;;;5.50;4.80;;;;;;;;;;5045942;28;20109;-81
2021/09/10 04:39:01;;;;;;;5.20;4.97;;;;;;;;;;5031631;28;20165;-81
2021/09/10 04:41:28;;;;;;;5.28;4.93;;;;;;;;;;5030022;28;20103;-81
2021/09/10 04:43:55;;;;;;;4.55;3.97;;;;;;;;;;5029718;28;20060;-81
2021/09/10 04:46:21;;;;;;;4.50;4.40;;;;;;;;;;5031944;28;20037;-81
2021/09/10 04:48:48;;;;;;;4.43;4.10;;;;;;;;;;5030586;28;20045;-81
2021/09/10 04:51:15;;;;;;;4.25;3.67;;;;;;;;;;5029040;28;20046;-81
2021/09/10 04:53:42;;;;;;;4.88;4.45;;;;;;;;;;5057686;28;20049;-81
2021/09/10 04:56:09;;;;;;;3.95;3.65;;;;;;;;;;5031341;28;20553;-81
2021/09/10 04:58:36;;;;;;;5.63;5.43;;;;;;;;;;5029498;28;20033;-81
2021/09/10 05:01:03;;;;;;;4.22;4.10;;;;;;;;;;5030786;28;20065;-81
2021/09/10 05:03:30;;;;;;;5.28;5.03;;;;;;;;;;5047782;28;20037;-81
2021/09/10 05:05:58;;;;;;;5.72;5.28;;;;;;;;;;5026187;28;20128;-80
2021/09/10 05:08:24;;;;;;;4.90;4.60;;;;;;;;;;5018142;28;20042;-81
2021/09/10 05:10:51;;;;;;;5.35;5.13;;;;;;;;;;5065325;28;20068;-81
2021/09/10 05:13:18;;;;;;;7.53;7.13;;;;;;;;;;5036762;28;20091;-81
2021/09/10 05:15:44;;;;;;;6.43;5.97;;;;;;;;;;5036117;28;20373;-81
2021/09/10 05:18:11;;;;;;;4.35;4.10;;;;;;;;;;5032410;28;20041;-79
2021/09/10 05:20:40;;;;;;;5.07;4.70;;;;;;;;;;5023473;28;20042;-79
2021/09/10 05:23:06;;;;;;;5.35;5.00;;;;;;;;;;5062627;28;20073;-79
2021/09/10 05:25:33;;;;;;;5.75;5.55;;;;;;;;;;5033534;28;20038;-79
2021/09/10 05:28:00;;;;;;;7.15;5.28;;;;;;;;;;5030994;28;20091;-79
2021/09/10 05:30:27;;;;;;;5.88;4.90;;;;;;;;;;5015546;28;20050;-79
2021/09/10 05:32:54;;;;;;;6.00;5.80;;;;;;;;;;5032297;28;20080;-79
2021/09/10 05:35:20;;;;;;;4.70;4.50;;;;;;;;;;5032796;28;20120;-79
2021/09/10 05:37:47;;;;;;;4.85;4.55;;;;;;;;;;5065163;28;20049;-79
2021/09/10 05:40:15;;;;;;;6.05;5.75;;;;;;;;;;5030196;28;20053;-78
2021/09/10 05:42:42;;;;;;;6.10;5.88;;;;;;;;;;5031100;28;20041;-79
2021/09/10 05:45:09;;;;;;;7.40;7.10;;;;;;;;;;5031360;28;20065;-79
2021/09/10 05:47:36;;;;;;;6.30;5.90;;;;;;;;;;5032979;28;20045;-79
2021/09/10 05:50:02;;;;;;;7.20;6.75;;;;;;;;;;5014899;28;20057;-79
2021/09/10 05:52:29;;;;;;;8.25;7.55;;;;;;;;;;5029698;28;20100;-79
2021/09/10 05:54:56;;;;;;;7.82;7.00;;;;;;;;;;5020962;28;20052;-79
2021/09/10 05:57:23;;;;;;;6.35;6.15;;;;;;;;;;5020548;28;20077;-79
2021/09/10 05:59:49;;;;;;;6.93;6.10;;;;;;;;;;5027103;28;20069;-79
2021/09/10 06:02:17;;;;;;;6.47;6.18;;;;;;;;;;5012890;28;20099;-79
2021/09/10 06:04:45;;;;;;;6.20;5.93;;;;;;;;;;5031505;28;20044;-79
2021/09/10 06:07:11;;;;;;;6.03;5.93;;;;;;;;;;5031304;28;20042;-79
2021/09/10 06:09:38;;;;;;;5.80;5.43;;;;;;;;;;5032454;28;20383;-79
2021/09/10 06:12:05;;;;;;;7.70;7.40;;;;;;;;;;5031625;28;20432;-79
2021/09/10 06:14:33;;;;;;;7.38;6.65;;;;;;;;;;5046518;28;20379;-79
2021/09/10 06:17:00;;;;;;;7.35;6.82;;;;;;;;;;5031667;28;20052;-79
2021/09/10 06:19:28;;;;;;;5.97;5.57;;;;;;;;;;5030307;28;20042;-79
2021/09/10 06:21:55;;;;;;;5.32;4.82;;;;;;;;;;5064020;28;20374;-79
2021/09/10 06:24:21;;;;;;;5.55;5.05;;;;;;;;;;5031348;28;20060;-79
2021/09/10 06:26:48;;;;;;;5.50;5.20;;;;;;;;;;5031852;28;20033;-79
2021/09/10 06:29:15;;;;;;;5.72;5.28;;;;;;;;;;5022542;28;20125;-79
2021/09/10 06:31:42;;;;;;;6.25;5.15;;;;;;;;;;5053028;28;20033;-80
2021/09/10 06:34:09;;;;;;;5.10;4.80;;;;;;;;;;5030855;28;20037;-79
2021/09/10 06:36:35;;;;;;;5.57;5.38;;;;;;;;;;5029103;28;20448;-79
2021/09/10 06:39:02;;;;;;;6.00;5.65;;;;;;;;;;5030724;28;20103;-80
2021/09/10 06:41:29;;;;;;;16.05;5.47;;;;;;;;;;5032792;28;20453;-79
2021/09/10 06:43:56;;;;;;;10.02;4.78;;;;;;;;;;5030076;28;20025;-79
2021/09/10 06:46:23;;;;;;;8.05;5.80;;;;;;;;;;5031170;28;20119;-79
2021/09/10 06:48:50;;;;;;;6.10;4.60;;;;;;;;;;5031156;28;20072;-79
2021/09/10 06:51:18;;;;;;;10.80;5.97;;;;;;;;;;5031778;28;20046;-79
2021/09/10 06:53:45;;;;;;;9.25;5.72;;;;;;;;;;5031596;28;20042;-79
2021/09/10 06:56:12;;;;;;;15.35;4.75;;;;;;;;;;5031492;28;20059;-79
2021/09/10 06:58:39;;;;;;;4.07;3.88;;;;;;;;;;5014748;28;20077;-79
2021/09/10 07:01:06;;;;;;;4.65;4.35;;;;;;;;;;5030568;28;20607;-79
2021/09/10 07:03:35;;;;;;;4.45;4.10;;;;;;;;;;5063409;28;20454;-79
2021/09/10 07:06:04;;;;;;;4.75;4.28;;;;;;;;;;5029514;28;20055;-79
2021/09/10 07:08:31;;;;;;;5.13;3.92;;;;;;;;;;5028575;28;20035;-79
2021/09/10 07:11:01;;;;;;;4.40;4.00;;;;;;;;;;5030039;28;20045;-79
2021/09/10 07:13:28;;;;;;;8.57;4.30;;;;;;;;;;5055003;28;20104;-79
2021/09/10 07:15:55;;;;;;;4.32;3.97;;;;;;;;;;5022332;28;20069;-79
2021/09/10 07:18:23;;;;;;;4.30;3.90;;;;;;;;;;5026887;28;20172;-79
2021/09/10 07:20:51;;;;;;;4.68;3.25;;;;;;;;;;5029332;28;20045;-79
2021/09/10 07:23:17;;;;;;;3.63;3.22;;;;;;;;;;5023178;28;20426;-79
2021/09/10 07:25:44;;;;;;;4.43;4.13;;;;;;;;;;5040320;28;20037;-79
2021/09/10 07:28:11;;;;;;;3.55;3.40;;;;;;;;;;5053281;28;20147;-79
2021/09/10 07:30:38;;;;;;;4.15;3.78;;;;;;;;;;5045064;28;20053;-79
2021/09/10 07:33:05;;;;;;;3.03;2.75;;;;;;;;;;5012190;28;20049;-79
2021/09/10 07:35:32;;;;;;;5.68;2.85;;;;;;;;;;5029466;28;20045;-79
2021/09/10 07:37:59;;;;;;;3.67;3.47;;;;;;;;;;5062368;28;20046;-79
2021/09/10 07:40:26;;;;;;;3.38;3.28;;;;;;;;;;5030093;28;20095;-79
2021/09/10 07:42:52;;;;;;;6.10;3.08;;;;;;;;;;5028295;28;20099;-79
2021/09/10 07:45:19;;;;;;;2.85;2.65;;;;;;;;;;5026813;28;20159;-79
2021/09/10 07:47:46;;;;;;;5.30;2.83;;;;;;;;;;5029671;28;20052;-79
2021/09/10 07:50:13;;;;;;;3.13;2.95;;;;;;;;;;5050279;28;20438;-79
2021/09/10 07:52:39;;;;;;;2.95;2.60;;;;;;;;;;5042994;28;20056;-79
2021/09/10 07:55:07;;;;;;;1.70;1.60;;;;;;;;;;5011808;28;20405;-79
2021/09/10 07:57:33;;;;;;;4.25;2.53;;;;;;;;;;5026096;28;20115;-79
2021/09/10 08:00:01;;;;;;;2.35;2.15;;;;;;;;;;5028441;28;20059;-79
2021/09/10 08:02:28;;;;;;;2.40;2.05;;;;;;;;;;5015949;28;20430;-79
2021/09/10 08:04:55;;;;;;;2.72;2.22;;;;;;;;;;5024130;28;20045;-79
2021/09/10 08:07:23;;;;;;;2.58;2.45;;;;;;;;;;5031363;28;20037;-79
2021/09/10 08:09:59;;;;;;;2.72;2.47;;;;;;;;;;5059654;28;20037;-79
2021/09/10 08:12:27;;;;;;;3.25;3.05;;;;;;;;;;5029306;28;20072;-79
2021/09/10 08:14:53;;;;;;;4.25;2.58;;;;;;;;;;5026211;28;20045;-79
2021/09/10 08:17:21;;;;;;;3.45;2.10;;;;;;;;;;5058265;28;20701;-79
2021/09/10 08:19:49;;;;;;;3.83;2.35;;;;;;;;;;5029788;28;20042;-79
2021/09/10 08:22:16;;;;;;;2.58;2.47;;;;;;;;;;5027667;28;20041;-80
2021/09/10 08:24:53;;;;;;;2.35;2.25;;;;;;;;;;5058806;28;20060;-80
2021/09/10 08:27:20;;;;;;;2.10;1.95;;;;;;;;;;5025574;28;20126;-80
2021/09/10 08:29:52;;;;;;;3.05;1.63;;;;;;;;;;5042575;28;20111;-80
2021/09/10 08:32:18;;;;;;;2.90;2.10;;;;;;;;;;5029233;28;20065;-80
2021/09/10 08:34:45;;;;;;;3.88;1.75;;;;;;;;;;5061830;28;20053;-80
2021/09/10 08:37:12;;;;;;;1.58;1.52;;;;;;;;;;5033164;28;20069;-80
2021/09/10 08:39:39;;;;;;;3.70;2.05;;;;;;;;;;5035790;28;20060;-80
2021/09/10 08:42:07;;;;;;;3.83;1.60;;;;;;;;;;5062087;28;20474;-80
2021/09/10 08:44:37;;;;;;;1.30;1.30;;;;;;;;;;5025292;28;20456;-80
2021/09/10 08:47:04;;;;;;;2.85;1.45;;;;;;;;;;5033371;28;20046;-80
2021/09/10 08:49:32;;;;;;;1.50;1.40;;;;;;;;;;5037413;28;20038;-80
2021/09/10 08:51:59;;;;;;;1.20;1.20;;;;;;;;;;5064355;28;20103;-80
2021/09/10 08:54:26;;;;;;;2.70;1.20;;;;;;;;;;5031566;28;20385;-80
2021/09/10 08:56:54;;;;;;;1.38;1.27;;;;;;;;;;5047421;28;20053;-80
2021/09/10 08:59:21;;;;;;;1.67;1.13;;;;;;;;;;5016713;28;20056;-80
2021/09/10 09:01:55;;;;;;;1.50;1.40;;;;;;;;;;5033486;28;20493;-80
2021/09/10 09:04:23;;;;;;;1.50;1.40;;;;;;;;;;5031842;28;20038;-80
2021/09/10 09:06:51;;;;;;;3.22;1.40;;;;;;;;;;5034384;28;20370;-80
2021/09/10 09:09:41;;;;;;;1.42;1.30;;;;;;;;;;5032224;28;20382;-80
2021/09/10 09:12:13;;;;;;;1.55;1.20;;;;;;;;;;5029210;28;20057;-80
2021/09/10 09:14:48;;;;;;;1.70;1.60;;;;;;;;;;5032261;28;20099;-80
2021/09/10 09:17:22;;;;;;;2.45;1.02;;;;;;;;;;5034024;28;20030;-80
2021/09/10 09:20:07;;;;;;;2.25;1.00;;;;;;;;;;5033182;28;20479;-80
2021/09/10 09:23:11;;;;;;;1.30;1.00;;;;;;;;;;5030876;28;20572;-80
2021/09/10 09:25:41;;;;;;;2.42;1.20;;;;;;;;;;4952593;29;20055;-80
2021/09/10 09:28:24;;;;;;;1.00;1.00;;;;;;;;;;4938016;28;20090;-80
2021/09/10 09:30:55;;;;;;;1.95;1.13;;;;;;;;;;4953674;28;20047;-80
2021/09/10 09:33:28;;;;;;;1.73;1.00;;;;;;;;;;4953704;29;20043;-80
2021/09/10 09:35:57;;;;;;;2.50;0.90;;;;;;;;;;4951330;29;20043;-80
2021/09/10 09:38:26;;;;;;;1.25;1.10;;;;;;;;;;4935114;29;20504;-80
2021/09/10 09:40:56;;;;;;;2.38;1.25;;;;;;;;;;4953162;29;20067;-80
2021/09/10 09:43:24;;;;;;;1.13;1.00;;;;;;;;;;4935168;29;20183;-80
2021/09/10 09:45:52;;;;;;;0.90;0.90;;;;;;;;;;4953878;29;22382;-80
2021/09/10 09:48:19;;;;;;;2.75;1.00;;;;;;;;;;4951931;28;20358;-80
2021/09/10 09:50:48;;;;;;;1.85;1.10;;;;;;;;;;4951798;29;20042;-80
2021/09/10 09:53:16;;;;;;;1.92;0.90;;;;;;;;;;4952028;29;20055;-80
2021/09/10 09:55:44;;;;;;;1.63;1.10;;;;;;;;;;4928924;29;20078;-80
2021/09/10 09:58:11;;;;;;;1.20;0.90;;;;;;;;;;4959021;28;20058;-80
2021/09/10 10:00:38;;;;;;;1.80;0.90;;;;;;;;;;5019863;28;20066;-80
2021/09/10 10:03:06;;;;;;;0.90;0.90;;;;;;;;;;5046967;28;20041;-80
2021/09/10 10:05:52;;;;;;;3.42;1.15;;;;;;;;;;5026459;28;20091;-80
2021/09/10 10:08:22;;;;;;;2.78;0.90;;;;;;;;;;5029405;28;20069;-80
2021/09/10 10:10:51;;;;;;;2.45;1.05;;;;;;;;;;5033102;28;20033;-80
2021/09/10 10:13:31;;;;;;;0.90;0.90;;;;;;;;;;5031624;28;20030;-80
2021/09/10 10:15:58;;;;;;;2.60;0.80;;;;;;;;;;5032143;28;20034;-80
2021/09/10 10:18:45;;;;;;;1.15;0.90;;;;;;;;;;5030831;28;20120;-80
2021/09/10 10:21:13;;;;;;;1.77;1.05;;;;;;;;;;5031054;28;20156;-80
2021/09/10 10:23:40;;;;;;;0.80;0.80;;;;;;;;;;5031933;28;20386;-80
2021/09/10 10:26:18;;;;;;;0.88;0.88;;;;;;;;;;5029822;28;20072;-80
2021/09/10 10:28:50;;;;;;;1.70;0.80;;;;;;;;;;5030228;28;20613;-80
2021/09/10 10:31:18;;;;;;;1.70;1.02;;;;;;;;;;5042200;28;20072;-80
2021/09/10 10:34:04;;;;;;;3.92;1.55;;;;;;;;;;5047077;28;20053;-80
2021/09/10 10:36:33;;;;;;;0.93;0.80;;;;;;;;;;5061743;28;20045;-80
2021/09/10 10:39:31;;;;;;;2.58;0.90;;;;;;;;;;5031116;28;20132;-80
2021/09/10 10:42:02;;;;;;;6.78;1.00;;;;;;;;;;5036972;28;20041;-80
2021/09/10 10:44:32;;;;;;;1.17;0.80;;;;;;;;;;5021796;28;20034;-80
2021/09/10 10:47:02;;;;;;;1.63;0.85;;;;;;;;;;5032309;28;20041;-80
2021/09/10 10:49:32;;;;;;;0.95;0.80;;;;;;;;;;5032429;28;20037;-80
2021/09/10 10:51:59;;;;;;;1.50;1.00;;;;;;;;;;5032352;28;20045;-80
2021/09/10 10:54:27;;;;;;;2.15;0.90;;;;;;;;;;5047064;28;20069;-80
2021/09/10 10:56:54;;;;;;;2.15;0.88;;;;;;;;;;5030392;28;20068;-80
2021/09/10 10:59:21;;;;;;;0.80;0.80;;;;;;;;;;5030796;28;20033;-80
2021/09/10 11:02:06;;;;;;;1.88;0.80;;;;;;;;;;5030235;28;20092;-80
2021/09/10 11:04:41;;;;;;;3.90;0.85;;;;;;;;;;5023742;28;20045;-80
2021/09/10 11:07:08;;;;;;;1.67;0.80;;;;;;;;;;5031655;28;20527;-80
2021/09/10 11:09:35;;;;;;;1.00;0.70;;;;;;;;;;5044856;28;20038;-80
2021/09/10 11:12:01;;;;;;;0.80;0.70;;;;;;;;;;5029546;28;20115;-80
2021/09/10 11:14:37;;;;;;;2.33;0.98;;;;;;;;;;5062768;28;20041;-80
2021/09/10 11:17:14;;;;;;;2.03;0.80;;;;;;;;;;5061673;28;20099;-80
2021/09/10 11:19:44;;;;;;;1.50;0.73;;;;;;;;;;5058695;28;20103;-80
2021/09/10 11:22:11;;;;;;;1.90;0.77;;;;;;;;;;5026955;28;20057;-80
2021/09/10 11:24:38;;;;;;;1.40;0.88;;;;;;;;;;5017768;28;20060;-80
2021/09/10 11:27:25;;;;;;;0.77;0.77;;;;;;;;;;5031571;28;20045;-80
2021/09/10 11:29:52;;;;;;;3.08;0.70;;;;;;;;;;5057818;28;20084;-80
2021/09/10 11:32:28;;;;;;;0.75;0.70;;;;;;;;;;5031166;28;20705;-80
2021/09/10 11:34:55;;;;;;;0.70;0.70;;;;;;;;;;5030578;28;20053;-80
2021/09/10 11:37:25;;;;;;;1.48;0.70;;;;;;;;;;5029539;28;20099;-80
2021/09/10 11:39:57;;;;;;;0.73;0.73;;;;;;;;;;5030914;28;20081;-81
2021/09/10 11:42:30;;;;;;;0.82;0.80;;;;;;;;;;5026238;28;20038;-81
2021/09/10 11:45:07;;;;;;;0.73;0.60;;;;;;;;;;5036284;28;20417;-81
2021/09/10 11:47:35;;;;;;;0.77;0.77;;;;;;;;;;5024918;28;20099;-81
2021/09/10 11:50:04;;;;;;;0.70;0.70;;;;;;;;;;5031607;28;20044;-81
2021/09/10 11:52:32;;;;;;;0.73;0.73;;;;;;;;;;5031357;28;20049;-81
2021/09/10 11:55:06;;;;;;;0.70;0.70;;;;;;;;;;5026419;28;20474;-81
2021/09/10 11:57:33;;;;;;;0.75;0.75;;;;;;;;;;5053957;28;20033;-81
2021/09/10 12:00:01;;;;;;;0.85;0.70;;;;;;;;;;5012150;28;20045;-81
2021/09/10 12:02:28;;;;;;;1.65;0.70;;;;;;;;;;5030510;28;20060;-82
2021/09/10 12:04:57;;;;;;;0.70;0.70;;;;;;;;;;5029326;28;20046;-82
2021/09/10 12:07:33;;;;;;;1.15;0.70;;;;;;;;;;5032177;28;20041;-82
2021/09/10 12:09:59;;;;;;;0.88;0.73;;;;;;;;;;5031002;28;20044;-82
2021/09/10 12:12:27;;;;;;;0.70;0.70;;;;;;;;;;5063235;28;20063;-82
2021/09/10 12:14:53;;;;;;;0.60;0.60;;;;;;;;;;5047459;28;20069;-82
2021/09/10 12:17:26;;;;;;;0.80;0.80;;;;;;;;;;5040931;28;20132;-82
2021/09/10 12:20:11;;;;;;;1.50;0.70;;;;;;;;;;5031846;28;20040;-82
2021/09/10 12:22:45;;;;;;;0.85;0.70;;;;;;;;;;5029752;28;20046;-82
2021/09/10 12:25:26;;;;;;;1.67;0.70;;;;;;;;;;5045930;28;20634;-81
2021/09/10 12:27:56;;;;;;;1.58;0.70;;;;;;;;;;5061215;28;20398;-78
2021/09/10 12:30:25;;;;;;;0.60;0.60;;;;;;;;;;5028393;28;20047;-78
2021/09/10 12:32:52;;;;;;;0.65;0.65;;;;;;;;;;5025525;28;20397;-78
2021/09/10 12:35:19;;;;;;;2.08;0.80;;;;;;;;;;5026685;28;20041;-78
2021/09/10 12:38:02;;;;;;;0.80;0.80;;;;;;;;;;5042805;28;20045;-78
2021/09/10 12:40:34;;;;;;;0.80;0.80;;;;;;;;;;5017766;28;20127;-78
2021/09/10 12:43:02;;;;;;;0.77;0.77;;;;;;;;;;5058358;28;20605;-78
2021/09/10 12:45:29;;;;;;;0.70;0.70;;;;;;;;;;5058057;28;20543;-78
2021/09/10 12:47:56;;;;;;;2.25;0.80;;;;;;;;;;5024140;28;20128;-78
2021/09/10 12:50:23;;;;;;;2.92;1.10;;;;;;;;;;5039565;28;20092;-78
2021/09/10 12:52:49;;;;;;;0.60;0.60;;;;;;;;;;5028667;28;20046;-78
2021/09/10 12:55:16;;;;;;;0.70;0.70;;;;;;;;;;5028565;28;20050;-78
2021/09/10 12:57:43;;;;;;;0.70;0.70;;;;;;;;;;5026562;28;20045;-78
2021/09/10 13:00:11;;;;;;;2.00;0.82;;;;;;;;;;5028324;28;20073;-78
2021/09/10 13:02:38;;;;;;;0.80;0.80;;;;;;;;;;5023783;28;20071;-78
2021/09/10 13:05:06;;;;;;;0.60;0.60;;;;;;;;;;5022967;28;20038;-78
2021/09/10 13:07:33;;;;;;;2.45;1.00;;;;;;;;;;5019676;28;20045;-78
2021/09/10 13:10:00;;;;;;;0.90;0.68;;;;;;;;;;5026140;28;20038;-78
2021/09/10 13:12:27;;;;;;;6.07;0.73;;;;;;;;;;5029210;28;20045;-78
2021/09/10 13:14:54;;;;;;;0.73;0.70;;;;;;;;;;5026253;28;20038;-78
2021/09/10 13:17:22;;;;;;;1.00;0.73;;;;;;;;;;5026726;28;20038;-78
2021/09/10 13:19:50;;;;;;;4.55;0.70;;;;;;;;;;5026501;28;20041;-78
2021/09/10 13:22:17;;;;;;;1.13;1.00;;;;;;;;;;5027999;28;20041;-78
2021/09/10 13:24:44;;;;;;;1.50;0.77;;;;;;;;;;5031373;28;20041;-78
2021/09/10 13:27:11;;;;;;;4.55;0.80;;;;;;;;;;5031290;28;20098;-78
2021/09/10 13:29:38;;;;;;;1.73;0.68;;;;;;;;;;5063788;28;20536;-78
2021/09/10 13:32:05;;;;;;;0.80;0.80;;;;;;;;;;5032969;28;20041;-78
2021/09/10 13:34:32;;;;;;;0.70;0.70;;;;;;;;;;5025453;28;20107;-78
2021/09/10 13:36:59;;;;;;;1.75;0.70;;;;;;;;;;5030014;28;20033;-78
2021/09/10 13:39:26;;;;;;;1.85;0.88;;;;;;;;;;5028796;28;20045;-78
2021/09/10 13:41:55;;;;;;;0.80;0.80;;;;;;;;;;5044810;28;20040;-78
2021/09/10 13:44:24;;;;;;;0.70;0.70;;;;;;;;;;5042467;28;20394;-78
2021/09/10 13:46:50;;;;;;;3.58;0.90;;;;;;;;;;5031362;28;20056;-78
2021/09/10 13:49:17;;;;;;;3.00;0.80;;;;;;;;;;5031537;28;20037;-78
2021/09/10 13:51:44;;;;;;;0.88;0.70;;;;;;;;;;5029585;28;20069;-78
2021/09/10 13:54:11;;;;;;;2.45;0.70;;;;;;;;;;5062329;28;20038;-78
2021/09/10 13:56:38;;;;;;;1.75;0.60;;;;;;;;;;5030755;28;20052;-78
2021/09/10 13:59:05;;;;;;;1.40;0.73;;;;;;;;;;5014176;28;20120;-78
2021/09/10 14:01:49;;;;;;;0.95;0.70;;;;;;;;;;5027093;28;20033;-78
2021/09/10 14:04:16;;;;;;;1.05;0.70;;;;;;;;;;5031447;28;20139;-78
2021/09/10 14:06:43;;;;;;;0.73;0.73;;;;;;;;;;5044435;28;20091;-78
2021/09/10 14:09:12;;;;;;;7.30;1.35;;;;;;;;;;5014514;28;20038;-78
2021/09/10 14:11:43;;;;;;;0.70;0.70;;;;;;;;;;5007513;28;20089;-78
2021/09/10 14:14:10;;;;;;;1.67;0.70;;;;;;;;;;5018038;28;20045;-78
2021/09/10 14:16:37;;;;;;;1.10;0.60;;;;;;;;;;5019714;28;20129;-78
2021/09/10 14:19:04;;;;;;;0.93;0.70;;;;;;;;;;5024408;28;20099;-78
2021/09/10 14:21:31;;;;;;;0.70;0.68;;;;;;;;;;5031256;28;20037;-78
2021/09/10 14:23:59;;;;;;;0.93;0.60;;;;;;;;;;5062167;28;20041;-78
2021/09/10 14:26:25;;;;;;;1.67;0.65;;;;;;;;;;5029763;28;20104;-78
2021/09/10 14:28:52;;;;;;;0.60;0.60;;;;;;;;;;5031476;28;20037;-78
2021/09/10 14:31:19;;;;;;;0.70;0.70;;;;;;;;;;5030565;28;20045;-78
2021/09/10 14:33:47;;;;;;;2.75;0.70;;;;;;;;;;5025270;28;20069;-78
2021/09/10 14:36:14;;;;;;;1.73;0.70;;;;;;;;;;5030667;28;20033;-78
2021/09/10 14:38:40;;;;;;;0.70;0.70;;;;;;;;;;5030890;28;20091;-78
2021/09/10 14:41:08;;;;;;;0.70;0.70;;;;;;;;;;5045413;28;20057;-78
2021/09/10 14:43:35;;;;;;;2.00;0.70;;;;;;;;;;5027990;28;20062;-78
2021/09/10 14:46:02;;;;;;;1.50;0.70;;;;;;;;;;5028093;28;20552;-78
2021/09/10 14:48:29;;;;;;;0.77;0.77;;;;;;;;;;5029403;28;20041;-78
2021/09/10 14:50:56;;;;;;;0.90;0.90;;;;;;;;;;5029474;28;20033;-78